Time;durP1;ratioP1;P1;durP2;ratioP2;P2;SDS_P1;SDS_P2;PMS_P1;PMS_P2;Temp;Humidity;BMP_temperature;BMP_pressure;BME280_temperature;BME280_humidity;BME280_pressure;Samples;Min_cycle;Max_cycle;Signal;HPM_P1;HPM_P2
2022/04/13 00:00:56;;;;;;;;;;;;;;;11.41;63.38;100748.03;5050848;28;19924;-80
2022/04/13 00:03:21;;;;;;;;;;;;;;;11.38;63.75;100752.50;5026315;28;19929;-80
2022/04/13 00:05:48;;;;;;;;;;;;;;;11.34;63.64;100751.69;5052384;28;19928;-76
2022/04/13 00:08:14;;;;;;;;;;;;;;;11.47;62.74;100747.88;5053983;28;19924;-78
2022/04/13 00:10:50;;;;;;;;;;;;;;;11.33;63.56;100751.72;5062495;28;19970;-81
2022/04/13 00:13:15;;;;;;;;;;;;;;;11.38;62.91;100750.72;5054895;28;20409;-81
2022/04/13 00:15:41;;;;;;;;;;;;;;;11.39;62.86;100748.97;5052323;28;19932;-81
2022/04/13 00:18:07;;;;;;;;;;;;;;;11.31;63.02;100754.38;5060470;28;19928;-81
2022/04/13 00:20:33;;;;;;;;;;;;;;;11.21;63.90;100752.84;5052787;28;20369;-81
2022/04/13 00:22:58;;;;;;;;;;;;;;;11.19;63.90;100756.38;5052683;28;20008;-79
2022/04/13 00:25:23;;;;;;;;;;;;;;;11.18;64.05;100757.25;5052682;28;19964;-78
2022/04/13 00:27:48;;;;;;;;;;;;;;;11.23;63.57;100747.63;5051373;28;19976;-80
2022/04/13 00:30:14;;;;;;;;;;;;;;;11.19;64.23;100753.78;5052054;28;20522;-76
2022/04/13 00:32:39;;;;;;;;;;;;;;;11.24;63.31;100757.09;5033740;28;19928;-80
2022/04/13 00:35:05;;;;;;;;;;;;;;;11.20;63.35;100761.56;5062256;28;20589;-80
2022/04/13 00:37:30;;;;;;;;;;;;;;;11.12;63.75;100763.47;5050251;28;20429;-79
2022/04/13 00:39:56;;;;;;;;;;;;;;;11.18;63.59;100754.66;5051365;28;20005;-81
2022/04/13 00:42:21;;;;;;;;;;;;;;;11.21;63.92;100770.19;5048103;28;19920;-76
2022/04/13 00:44:47;;;;;;;;;;;;;;;11.17;64.10;100768.56;5054010;28;19932;-78
2022/04/13 00:47:13;;;;;;;;;;;;;;;11.15;63.80;100765.13;5034209;28;19920;-81
2022/04/13 00:49:38;;;;;;;;;;;;;;;11.19;63.58;100759.84;5052959;28;20379;-81
2022/04/13 00:52:04;;;;;;;;;;;;;;;11.27;63.16;100755.28;5056641;28;20439;-80
2022/04/13 00:54:30;;;;;;;;;;;;;;;11.26;63.30;100756.22;5059593;28;19920;-76
2022/04/13 00:56:56;;;;;;;;;;;;;;;11.29;63.28;100758.78;5053438;28;19975;-76
2022/04/13 00:59:23;;;;;;;;;;;;;;;11.38;63.04;100761.13;5042403;28;20001;-78
2022/04/13 01:01:49;;;;;;;;;;;;;;;11.30;64.28;100763.06;5048840;28;19968;-78
2022/04/13 01:04:15;;;;;;;;;;;;;;;11.30;64.33;100773.47;5055596;28;19929;-78
2022/04/13 01:06:42;;;;;;;;;;;;;;;11.20;64.95;100771.09;5050226;28;19956;-75
2022/04/13 01:09:07;;;;;;;;;;;;;;;11.31;64.76;100775.19;5043220;28;19932;-76
2022/04/13 01:11:33;;;;;;;;;;;;;;;11.30;64.24;100775.19;5048069;28;19925;-76
2022/04/13 01:13:58;;;;;;;;;;;;;;;11.27;64.40;100775.25;5048358;28;19925;-80
2022/04/13 01:16:24;;;;;;;;;;;;;;;11.27;63.80;100781.31;5058704;28;19931;-80
2022/04/13 01:18:49;;;;;;;;;;;;;;;11.24;64.51;100786.56;5048674;28;19964;-80
2022/04/13 01:21:17;;;;;;;;;;;;;;;11.24;64.40;100788.31;5048483;28;19963;-80
2022/04/13 01:23:42;;;;;;;;;;;;;;;11.19;64.69;100790.16;5048678;28;19929;-76
2022/04/13 01:26:09;;;;;;;;;;;;;;;11.24;64.66;100796.13;5052844;28;19978;-76
2022/04/13 01:28:35;;;;;;;;;;;;;;;11.15;64.93;100799.78;5054688;28;19930;-76
2022/04/13 01:31:00;;;;;;;;;;;;;;;11.23;64.29;100804.81;5052662;28;19925;-76
2022/04/13 01:33:27;;;;;;;;;;;;;;;11.17;64.87;100800.63;5062165;28;19956;-76
2022/04/13 01:35:52;;;;;;;;;;;;;;;11.14;65.09;100798.09;5062241;28;19925;-76
2022/04/13 01:38:18;;;;;;;;;;;;;;;11.12;64.90;100806.81;5050800;28;19986;-76
2022/04/13 01:40:44;;;;;;;;;;;;;;;11.18;65.19;100804.91;5050543;28;20504;-75
2022/04/13 01:43:09;;;;;;;;;;;;;;;11.21;64.56;100803.97;5050055;28;19925;-79
2022/04/13 01:45:36;;;;;;;;;;;;;;;11.27;64.60;100806.44;5045869;28;19936;-81
2022/04/13 01:48:01;;;;;;;;;;;;;;;11.24;64.73;100807.38;5047421;28;20278;-76
2022/04/13 01:50:26;;;;;;;;;;;;;;;11.21;65.24;100807.44;5057660;28;19935;-76
2022/04/13 01:52:52;;;;;;;;;;;;;;;11.14;65.29;100805.88;5046324;28;19928;-80
2022/04/13 01:55:17;;;;;;;;;;;;;;;11.26;64.31;100803.00;5049528;28;20403;-81
2022/04/13 01:57:43;;;;;;;;;;;;;;;11.19;64.56;100806.63;5048230;28;20412;-76
2022/04/13 02:00:10;;;;;;;;;;;;;;;11.22;64.16;100803.09;5053238;28;19963;-79
2022/04/13 02:02:36;;;;;;;;;;;;;;;11.15;64.97;100810.19;5052232;28;19972;-81
2022/04/13 02:05:02;;;;;;;;;;;;;;;11.06;65.81;100815.59;5053415;28;20463;-81
2022/04/13 02:07:27;;;;;;;;;;;;;;;11.03;66.08;100815.66;5050102;28;20011;-80
2022/04/13 02:09:53;;;;;;;;;;;;;;;11.01;65.50;100807.03;5051238;28;20385;-81
2022/04/13 02:12:18;;;;;;;;;;;;;;;11.01;65.96;100813.09;5051449;28;19932;-81
2022/04/13 02:14:44;;;;;;;;;;;;;;;10.95;66.04;100809.78;5049492;28;19921;-81
2022/04/13 02:17:14;;;;;;;;;;;;;;;10.86;66.01;100821.22;5046976;28;20296;-78
2022/04/13 02:19:40;;;;;;;;;;;;;;;10.88;65.75;100823.78;5053443;28;19920;-78
2022/04/13 02:22:05;;;;;;;;;;;;;;;11.00;65.43;100819.19;5048416;28;19928;-81
2022/04/13 02:24:30;;;;;;;;;;;;;;;10.98;65.93;100813.16;5043502;28;20449;-80
2022/04/13 02:26:55;;;;;;;;;;;;;;;11.04;65.65;100809.56;5048086;28;19925;-78
2022/04/13 02:29:21;;;;;;;;;;;;;;;10.87;65.64;100820.34;5044988;28;19948;-76
2022/04/13 02:31:46;;;;;;;;;;;;;;;10.81;65.81;100828.28;5042895;28;19925;-76
2022/04/13 02:34:11;;;;;;;;;;;;;;;10.81;65.88;100827.41;5053630;28;19921;-76
2022/04/13 02:36:36;;;;;;;;;;;;;;;10.87;65.80;100825.56;5051749;28;20011;-80
2022/04/13 02:39:02;;;;;;;;;;;;;;;10.78;65.66;100828.34;5046991;28;20019;-80
2022/04/13 02:41:27;;;;;;;;;;;;;;;10.77;66.42;100837.00;5051457;28;19925;-78
2022/04/13 02:43:52;;;;;;;;;;;;;;;10.87;65.83;100837.69;5048940;28;20011;-81
2022/04/13 02:46:18;;;;;;;;;;;;;;;10.87;65.74;100841.13;5053136;28;19967;-81
2022/04/13 02:48:43;;;;;;;;;;;;;;;10.81;65.91;100843.00;5047095;28;19925;-75
2022/04/13 02:51:08;;;;;;;;;;;;;;;10.82;65.65;100844.72;5051958;28;19928;-76
2022/04/13 02:53:34;;;;;;;;;;;;;;;10.74;65.66;100841.41;5031196;28;20584;-79
2022/04/13 02:55:59;;;;;;;;;;;;;;;10.75;65.58;100838.78;5043850;28;19932;-80
2022/04/13 02:58:25;;;;;;;;;;;;;;;10.79;66.04;100837.81;5048926;28;19917;-75
2022/04/13 03:00:50;;;;;;;;;;;;;;;10.96;65.54;100846.16;5048924;28;19928;-75
2022/04/13 03:03:16;;;;;;;;;;;;;;;10.83;65.68;100851.63;5046860;28;19933;-76
2022/04/13 03:05:42;;;;;;;;;;;;;;;10.81;65.89;100853.41;5041015;28;19925;-81
2022/04/13 03:08:08;;;;;;;;;;;;;;;10.87;65.84;100845.47;5053997;28;19924;-80
2022/04/13 03:10:33;;;;;;;;;;;;;;;10.91;65.07;100860.97;5056258;28;19924;-79
2022/04/13 03:12:58;;;;;;;;;;;;;;;10.89;65.14;100848.88;5051015;28;19968;-80
2022/04/13 03:15:24;;;;;;;;;;;;;;;10.87;65.23;100850.69;5052061;28;20564;-80
2022/04/13 03:17:50;;;;;;;;;;;;;;;10.82;65.15;100850.75;5052570;28;19927;-80
2022/04/13 03:20:16;;;;;;;;;;;;;;;10.86;64.93;100852.41;5047030;28;20309;-79
2022/04/13 03:22:41;;;;;;;;;;;;;;;10.77;65.19;100855.19;5053062;28;19925;-78
2022/04/13 03:25:07;;;;;;;;;;;;;;;10.78;65.18;100856.06;5051161;28;19936;-81
2022/04/13 03:27:32;;;;;;;;;;;;;;;10.85;64.95;100849.88;5044132;28;19928;-81
2022/04/13 03:29:57;;;;;;;;;;;;;;;10.73;65.00;100856.13;5033878;28;19924;-80
2022/04/13 03:32:23;;;;;;;;;;;;;;;10.72;64.31;100859.66;5051705;28;20400;-80
2022/04/13 03:34:48;;;;;;;;;;;;;;;10.55;64.81;100861.72;5056616;28;19921;-80
2022/04/13 03:37:13;;;;;;;;;;;;;;;10.55;65.10;100868.66;5037880;28;20020;-80
2022/04/13 03:39:38;;;;;;;;;;;;;;;10.48;65.59;100862.72;5051399;28;20336;-81
2022/04/13 03:42:04;;;;;;;;;;;;;;;10.53;65.31;100870.41;5060514;28;19932;-81
2022/04/13 03:44:29;;;;;;;;;;;;;;;10.63;64.93;100867.63;5054898;28;19947;-81
2022/04/13 03:46:55;;;;;;;;;;;;;;;10.71;64.29;100867.44;5054534;28;20536;-81
2022/04/13 03:49:20;;;;;;;;;;;;;;;10.64;64.77;100865.88;5055555;28;20493;-81
2022/04/13 03:51:46;;;;;;;;;;;;;;;10.68;64.75;100870.97;5050094;28;20437;-80
2022/04/13 03:54:11;;;;;;;;;;;;;;;10.50;64.91;100880.84;5053237;28;19934;-80
2022/04/13 03:56:36;;;;;;;;;;;;;;;10.60;65.13;100874.59;5053355;28;19928;-81
2022/04/13 03:59:02;;;;;;;;;;;;;;;10.50;65.35;100868.72;5054405;28;19978;-81
2022/04/13 04:01:28;;;;;;;;;;;;;;;10.51;65.31;100875.63;5055750;28;19959;-75
2022/04/13 04:03:54;;;;;;;;;;;;;;;10.44;65.56;100880.09;5058283;28;20364;-75
2022/04/13 04:06:19;;;;;;;;;;;;;;;10.46;65.43;100882.69;5052739;28;19924;-76
2022/04/13 04:08:45;;;;;;;;;;;;;;;10.46;65.59;100886.09;5052726;28;19921;-75
2022/04/13 04:11:10;;;;;;;;;;;;;;;10.29;65.83;100882.09;5057783;28;20312;-76
2022/04/13 04:13:36;;;;;;;;;;;;;;;10.40;65.87;100887.97;5053596;28;20142;-76
2022/04/13 04:16:02;;;;;;;;;;;;;;;10.42;65.49;100899.19;5053983;28;20535;-76
2022/04/13 04:18:27;;;;;;;;;;;;;;;10.36;65.70;100892.38;5049419;28;19928;-76
2022/04/13 04:20:53;;;;;;;;;;;;;;;10.42;65.58;100900.03;5055456;28;19946;-81
2022/04/13 04:23:18;;;;;;;;;;;;;;;10.54;65.33;100896.38;5052874;28;19925;-76
2022/04/13 04:25:44;;;;;;;;;;;;;;;10.47;65.47;100897.34;5052782;28;19925;-78
2022/04/13 04:28:11;;;;;;;;;;;;;;;10.50;64.90;100899.88;5054730;28;20067;-80
2022/04/13 04:30:37;;;;;;;;;;;;;;;10.29;65.72;100902.88;5045420;28;19971;-76
2022/04/13 04:33:04;;;;;;;;;;;;;;;10.49;65.58;100912.91;5054827;28;20405;-81
2022/04/13 04:35:29;;;;;;;;;;;;;;;10.50;65.01;100909.41;5024418;28;20361;-81
2022/04/13 04:37:54;;;;;;;;;;;;;;;10.45;65.37;100912.13;5057015;28;19925;-81
2022/04/13 04:40:19;;;;;;;;;;;;;;;10.53;65.76;100912.81;5051010;28;19928;-81
2022/04/13 04:42:46;;;;;;;;;;;;;;;10.44;65.48;100907.78;5064138;28;19929;-78
2022/04/13 04:45:13;;;;;;;;;;;;;;;10.52;65.37;100915.47;5053995;28;19939;-75
2022/04/13 04:47:38;;;;;;;;;;;;;;;10.50;65.62;100910.28;5047251;28;20396;-80
2022/04/13 04:50:04;;;;;;;;;;;;;;;10.40;65.99;100914.78;5045264;28;19925;-80
2022/04/13 04:52:29;;;;;;;;;;;;;;;10.42;66.14;100914.78;5051370;28;19924;-76
2022/04/13 04:54:55;;;;;;;;;;;;;;;10.41;66.01;100918.25;5035078;28;19921;-76
2022/04/13 04:57:21;;;;;;;;;;;;;;;10.42;66.16;100915.63;5055068;28;19932;-81
2022/04/13 04:59:46;;;;;;;;;;;;;;;10.54;65.66;100917.16;5048676;28;19929;-81
2022/04/13 05:02:11;;;;;;;;;;;;;;;10.44;65.86;100925.97;5044576;28;19924;-81
2022/04/13 05:04:36;;;;;;;;;;;;;;;10.47;65.89;100925.91;5051561;28;19935;-81
2022/04/13 05:07:02;;;;;;;;;;;;;;;10.51;65.87;100926.72;5046236;28;20884;-81
2022/04/13 05:09:28;;;;;;;;;;;;;;;10.43;66.34;100929.47;5046928;28;19963;-81
2022/04/13 05:11:53;;;;;;;;;;;;;;;10.54;65.99;100929.28;5047723;28;19925;-78
2022/04/13 05:14:20;;;;;;;;;;;;;;;10.53;66.44;100932.75;5049868;28;19925;-76
2022/04/13 05:16:46;;;;;;;;;;;;;;;10.61;65.80;100933.47;5041388;28;19929;-79
2022/04/13 05:19:12;;;;;;;;;;;;;;;10.48;66.98;100935.44;5049281;28;20305;-81
2022/04/13 05:21:37;;;;;;;;;;;;;;;10.50;66.78;100931.06;5013760;28;20324;-78
2022/04/13 05:24:03;;;;;;;;;;;;;;;10.57;66.54;100937.88;5055869;28;19928;-78
2022/04/13 05:26:28;;;;;;;;;;;;;;;10.68;67.07;100937.66;5050651;28;19931;-81
2022/04/13 05:28:53;;;;;;;;;;;;;;;10.63;66.91;100942.09;5051846;28;19924;-81
2022/04/13 05:31:19;;;;;;;;;;;;;;;10.58;66.86;100939.59;5051094;28;20079;-78
2022/04/13 05:33:46;;;;;;;;;;;;;;;10.71;66.97;100941.06;5033546;28;19921;-78
2022/04/13 05:36:12;;;;;;;;;;;;;;;10.68;67.54;100946.31;5063580;28;20036;-80
2022/04/13 05:38:39;;;;;;;;;;;;;;;10.72;66.72;100949.72;5053708;28;20015;-80
2022/04/13 05:41:04;;;;;;;;;;;;;;;10.79;67.13;100944.38;5049199;28;19980;-81
2022/04/13 05:43:33;;;;;;;;;;;;;;;10.76;67.17;100951.38;5057566;28;19936;-81
2022/04/13 05:45:58;;;;;;;;;;;;;;;10.82;67.55;100946.91;5051384;28;19929;-81
2022/04/13 05:48:23;;;;;;;;;;;;;;;10.83;67.70;100958.16;5046171;28;19939;-80
2022/04/13 05:50:50;;;;;;;;;;;;;;;10.77;67.31;100964.34;5050584;28;19931;-81
2022/04/13 05:53:16;;;;;;;;;;;;;;;10.84;68.31;100967.69;5044883;28;19938;-81
2022/04/13 05:55:41;;;;;;;;;;;;;;;10.95;67.24;100968.31;5053869;28;19928;-80
2022/04/13 05:58:06;;;;;;;;;;;;;;;10.93;68.07;100976.16;5060787;28;20286;-80
2022/04/13 06:00:32;;;;;;;;;;;;;;;11.01;67.26;100968.22;5055007;28;20007;-78
2022/04/13 06:02:57;;;;;;;;;;;;;;;11.09;66.76;100975.88;5044080;28;20438;-78
2022/04/13 06:05:24;;;;;;;;;;;;;;;11.11;67.19;100981.88;5064204;28;20598;-80
2022/04/13 06:07:49;;;;;;;;;;;;;;;11.15;67.66;100984.38;5052635;28;19925;-80
2022/04/13 06:10:17;;;;;;;;;;;;;;;11.14;67.50;100987.88;5054592;28;19924;-76
2022/04/13 06:12:42;;;;;;;;;;;;;;;11.24;66.92;100994.59;5045089;28;20311;-81
2022/04/13 06:15:08;;;;;;;;;;;;;;;11.25;67.75;100990.25;5050424;28;20393;-77
2022/04/13 06:17:34;;;;;;;;;;;;;;;11.29;67.70;100994.56;5048094;28;20344;-80
2022/04/13 06:20:00;;;;;;;;;;;;;;;11.34;68.83;100993.56;5053004;28;19927;-80
2022/04/13 06:22:26;;;;;;;;;;;;;;;11.40;67.79;101003.84;5058055;28;19921;-81
2022/04/13 06:24:51;;;;;;;;;;;;;;;11.40;67.86;101000.38;5050653;28;19983;-76
2022/04/13 06:27:20;;;;;;;;;;;;;;;11.38;68.19;101008.22;5050395;28;19929;-76
2022/04/13 06:29:46;;;;;;;;;;;;;;;11.37;69.00;101011.72;5048737;28;19931;-76
2022/04/13 06:32:12;;;;;;;;;;;;;;;11.43;68.38;101011.59;5053862;28;19929;-76
2022/04/13 06:34:38;;;;;;;;;;;;;;;11.39;68.23;101003.88;5050242;28;20355;-76
2022/04/13 06:37:03;;;;;;;;;;;;;;;11.43;67.74;101011.59;5059694;28;19943;-76
2022/04/13 06:39:29;;;;;;;;;;;;;;;11.47;67.31;101012.38;5053321;28;19954;-76
2022/04/13 06:41:54;;;;;;;;;;;;;;;11.45;68.56;101021.94;5054625;28;20358;-76
2022/04/13 06:44:19;;;;;;;;;;;;;;;11.43;67.08;101022.00;5031805;28;19924;-76
2022/04/13 06:46:44;;;;;;;;;;;;;;;11.47;67.35;101028.81;5056707;28;19925;-80
2022/04/13 06:49:10;;;;;;;;;;;;;;;11.47;68.99;101034.03;5051973;28;19928;-81
2022/04/13 06:51:35;;;;;;;;;;;;;;;11.50;69.11;101033.97;5046479;28;20015;-81
2022/04/13 06:54:00;;;;;;;;;;;;;;;11.51;68.23;101033.09;5049672;28;19928;-81
2022/04/13 06:56:25;;;;;;;;;;;;;;;11.53;68.44;101033.06;5049456;28;19920;-81
2022/04/13 06:58:51;;;;;;;;;;;;;;;11.52;69.32;101032.22;5052867;28;19936;-78
2022/04/13 07:01:16;;;;;;;;;;;;;;;11.61;68.48;101038.09;5062283;28;19932;-78
2022/04/13 07:03:41;;;;;;;;;;;;;;;11.61;68.29;101038.97;5046773;28;20635;-76
2022/04/13 07:06:06;;;;;;;;;;;;;;;11.63;68.79;101046.72;5050593;28;19950;-76
2022/04/13 07:08:32;;;;;;;;;;;;;;;11.70;67.55;101043.97;5050575;28;19959;-78
2022/04/13 07:10:57;;;;;;;;;;;;;;;11.69;67.92;101042.25;5046410;28;19925;-78
2022/04/13 07:13:23;;;;;;;;;;;;;;;11.77;67.39;101042.94;5053531;28;19934;-78
2022/04/13 07:15:50;;;;;;;;;;;;;;;11.84;68.13;101041.94;5063862;28;19931;-76
2022/04/13 07:18:15;;;;;;;;;;;;;;;11.81;68.90;101042.00;5045014;28;20397;-76
2022/04/13 07:20:40;;;;;;;;;;;;;;;11.82;69.27;101048.06;5047896;28;19932;-76
2022/04/13 07:23:05;;;;;;;;;;;;;;;11.78;68.96;101049.88;5046187;28;19921;-80
2022/04/13 07:25:31;;;;;;;;;;;;;;;11.80;69.07;101049.84;5055028;28;19932;-80
2022/04/13 07:27:56;;;;;;;;;;;;;;;11.78;69.80;101051.63;5055648;28;19924;-80
2022/04/13 07:30:21;;;;;;;;;;;;;;;11.80;69.29;101052.47;5049574;28;19931;-80
2022/04/13 07:32:47;;;;;;;;;;;;;;;11.80;70.07;101060.28;5049344;28;19920;-81
2022/04/13 07:35:13;;;;;;;;;;;;;;;11.80;70.31;101060.28;5035924;28;19925;-81
2022/04/13 07:37:43;;;;;;;;;;;;;;;11.84;70.46;101062.75;5034272;28;19916;-81
2022/04/13 07:40:10;;;;;;;;;;;;;;;11.93;69.29;101062.56;5058770;28;20042;-81
2022/04/13 07:42:35;;;;;;;;;;;;;;;11.99;68.75;101056.34;5043905;28;19936;-78
2022/04/13 07:45:02;;;;;;;;;;;;;;;12.08;67.78;101056.16;5052733;28;19975;-78
2022/04/13 07:47:28;;;;;;;;;;;;;;;12.10;68.54;101059.56;5045753;28;20659;-80
2022/04/13 07:49:53;;;;;;;;;;;;;;;12.11;68.46;101059.56;5029319;28;19929;-80
2022/04/13 07:52:19;;;;;;;;;;;;;;;12.15;68.01;101062.94;5048549;28;20358;-78
2022/04/13 07:54:44;;;;;;;;;;;;;;;12.13;69.07;101060.38;5044751;28;19920;-77
2022/04/13 07:57:10;;;;;;;;;;;;;;;12.22;67.76;101061.03;5055993;28;19928;-80
2022/04/13 07:59:35;;;;;;;;;;;;;;;12.25;67.94;101068.78;5057016;28;20031;-76
2022/04/13 08:02:02;;;;;;;;;;;;;;;12.27;67.99;101060.06;5052117;28;20325;-76
2022/04/13 08:04:27;;;;;;;;;;;;;;;12.34;66.81;101071.16;5037633;28;19928;-81
2022/04/13 08:06:52;;;;;;;;;;;;;;;12.37;66.87;101071.97;5051753;28;19916;-81
2022/04/13 08:09:18;;;;;;;;;;;;;;;12.37;67.79;101068.50;5061995;28;19947;-77
2022/04/13 08:11:45;;;;;;;;;;;;;;;12.45;66.16;101079.63;5056264;28;19931;-79
2022/04/13 08:14:11;;;;;;;;;;;;;;;12.47;66.70;101086.50;5051255;28;19933;-78
2022/04/13 08:16:36;;;;;;;;;;;;;;;12.47;67.14;101083.03;5052586;28;20340;-78
2022/04/13 08:19:02;;;;;;;;;;;;;;;12.45;67.05;101093.47;5053628;28;19943;-78
2022/04/13 08:21:27;;;;;;;;;;;;;;;12.50;66.00;101078.59;5056119;28;19931;-79
2022/04/13 08:23:52;;;;;;;;;;;;;;;12.53;65.40;101080.31;5049570;28;19965;-76
2022/04/13 08:26:17;;;;;;;;;;;;;;;12.69;63.43;101086.03;5044239;28;20436;-75
2022/04/13 08:28:43;;;;;;;;;;;;;;;12.67;65.17;101091.25;5044319;28;19964;-80
2022/04/13 08:31:09;;;;;;;;;;;;;;;12.69;64.78;101080.81;5058895;28;19921;-81
2022/04/13 08:33:35;;;;;;;;;;;;;;;12.69;65.28;101084.25;5047640;28;19921;-81
2022/04/13 08:36:00;;;;;;;;;;;;;;;12.65;66.00;101088.69;5037882;28;19920;-81
2022/04/13 08:38:38;;;;;;;;;;;;;;;12.75;65.00;101098.91;5052016;28;19936;-81
2022/04/13 08:41:10;;;;;;;;;;;;;;;12.85;63.38;101100.38;5048819;28;19928;-81
2022/04/13 08:43:48;;;;;;;;;;;;;;;12.79;63.78;101101.38;5048755;28;19947;-80
2022/04/13 08:46:24;;;;;;;;;;;;;;;12.76;64.46;101104.06;5028953;28;19927;-76
2022/04/13 08:48:51;;;;;;;;;;;;;;;12.79;64.59;101103.13;5057607;28;19971;-76
2022/04/13 08:51:19;;;;;;;;;;;;;;;12.80;64.49;101105.72;5030713;28;19983;-79
2022/04/13 08:53:44;;;;;;;;;;;;;;;12.91;64.25;101114.13;5047683;28;19927;-78
2022/04/13 08:56:11;;;;;;;;;;;;;;;12.91;64.55;101113.25;5055832;28;20230;-78
2022/04/13 08:58:49;;;;;;;;;;;;;;;12.97;64.70;101116.56;5055089;28;19971;-80
2022/04/13 09:01:25;;;;;;;;;;;;;;;13.03;64.57;101118.16;5051659;28;20385;-76
2022/04/13 09:03:51;;;;;;;;;;;;;;;13.03;64.55;101120.78;5052089;28;20007;-76
2022/04/13 09:06:20;;;;;;;;;;;;;;;13.01;64.69;101117.34;5052058;28;19936;-81
2022/04/13 09:08:50;;;;;;;;;;;;;;;13.00;65.07;101121.72;5035007;28;20313;-81
2022/04/13 09:11:16;;;;;;;;;;;;;;;13.03;64.71;101126.00;5034699;28;19924;-81
2022/04/13 09:13:44;;;;;;;;;;;;;;;13.25;64.01;101123.69;5049498;28;20022;-81
2022/04/13 09:16:09;;;;;;;;;;;;;;;13.32;62.87;101125.22;5060117;28;19912;-76
2022/04/13 09:18:34;;;;;;;;;;;;;;;13.26;63.26;101123.63;5050127;28;19936;-76
2022/04/13 09:21:00;;;;;;;;;;;;;;;13.23;63.61;101126.31;5047310;28;19925;-76
2022/04/13 09:23:28;;;;;;;;;;;;;;;13.11;64.23;101121.41;5036032;28;19925;-77
2022/04/13 09:25:54;;;;;;;;;;;;;;;13.20;63.78;101123.78;5034135;28;19935;-78
2022/04/13 09:28:20;;;;;;;;;;;;;;;13.08;64.54;101122.38;5052282;28;19929;-78
2022/04/13 09:30:45;;;;;;;;;;;;;;;13.19;63.98;101122.09;5071283;28;19924;-80
2022/04/13 09:33:11;;;;;;;;;;;;;;;13.20;63.57;101118.56;5050413;28;19925;-80
2022/04/13 09:35:36;;;;;;;;;;;;;;;13.35;63.12;101123.41;5053415;28;20464;-80
2022/04/13 09:38:02;;;;;;;;;;;;;;;13.17;63.85;101121.25;5054715;28;19928;-76
2022/04/13 09:40:28;;;;;;;;;;;;;;;13.19;63.63;101120.31;5053490;28;20015;-80
2022/04/13 09:43:02;;;;;;;;;;;;;;;13.23;64.47;101123.72;5047796;28;20020;-81
2022/04/13 09:45:32;;;;;;;;;;;;;;;13.32;63.65;101118.25;5052394;28;19929;-81
2022/04/13 09:47:57;;;;;;;;;;;;;;;13.57;61.91;101121.06;5045625;28;20403;-81
2022/04/13 09:50:25;;;;;;;;;;;;;;;13.63;61.89;101120.91;5057492;28;19929;-76
2022/04/13 09:52:54;;;;;;;;;;;;;;;13.77;60.48;101118.78;5046457;28;19921;-76
2022/04/13 09:55:21;;;;;;;;;;;;;;;13.64;60.85;101120.84;5047663;28;19913;-80
2022/04/13 09:57:46;;;;;;;;;;;;;;;13.74;60.89;101111.03;5047919;28;20036;-78
2022/04/13 10:00:13;;;;;;;;;;;;;;;13.77;60.29;101114.41;5042964;28;20036;-78
2022/04/13 10:02:39;;;;;;;;;;;;;;;13.77;59.95;101100.50;5049686;28;19921;-80
2022/04/13 10:05:06;;;;;;;;;;;;;;;13.71;60.46;101105.91;5051640;28;19928;-81
2022/04/13 10:07:31;;;;;;;;;;;;;;;13.49;60.88;101105.59;5049343;28;19924;-80
2022/04/13 10:09:57;;;;;;;;;;;;;;;13.56;61.37;101109.75;5056460;28;19925;-81
2022/04/13 10:12:22;;;;;;;;;;;;;;;13.58;61.66;101110.56;5053855;28;19920;-80
2022/04/13 10:14:47;;;;;;;;;;;;;;;13.74;61.63;101111.91;5052095;28;19931;-81
2022/04/13 10:17:14;;;;;;;;;;;;;;;13.97;60.96;101112.97;5051406;28;20598;-81
2022/04/13 10:19:39;;;;;;;;;;;;;;;14.08;60.76;101116.13;5045095;28;19963;-79
2022/04/13 10:22:05;;;;;;;;;;;;;;;13.87;60.74;101107.19;5047499;28;19913;-78
2022/04/13 10:24:32;;;;;;;;;;;;;;;13.80;61.51;101112.59;5050116;28;19936;-77
2022/04/13 10:27:03;;;;;;;;;;;;;;;13.91;61.07;101114.00;5050826;28;19928;-76
2022/04/13 10:29:29;;;;;;;;;;;;;;;14.24;59.94;101113.00;5051903;28;19925;-76
2022/04/13 10:32:05;;;;;;;;;;;;;;;14.41;59.48;101116.88;5053777;28;20004;-76
2022/04/13 10:34:31;;;;;;;;;;;;;;;14.40;60.03;101121.25;5049107;28;19921;-76
2022/04/13 10:36:57;;;;;;;;;;;;;;;14.23;60.42;101113.06;5049979;28;19924;-76
2022/04/13 10:39:22;;;;;;;;;;;;;;;14.09;60.63;101118.69;5055419;28;20442;-76
2022/04/13 10:41:48;;;;;;;;;;;;;;;14.11;61.01;101123.88;5049136;28;19924;-76
2022/04/13 10:44:14;;;;;;;;;;;;;;;14.21;61.06;101133.16;5052795;28;19936;-77
2022/04/13 10:46:41;;;;;;;;;;;;;;;14.30;60.76;101118.06;5036074;28;19985;-78
2022/04/13 10:49:09;;;;;;;;;;;;;;;14.00;61.83;101126.81;5061777;28;19920;-78
2022/04/13 10:51:36;;;;;;;;;;;;;;;14.24;60.71;101133.91;5046668;28;19925;-78
2022/04/13 10:54:06;;;;;;;;;;;;;;;14.18;60.56;101135.84;5049218;28;19921;-76
2022/04/13 10:56:36;;;;;;;;;;;;;;;14.46;59.32;101122.81;5051568;28;19934;-76
2022/04/13 10:59:11;;;;;;;;;;;;;;;14.39;59.66;101127.34;5029568;28;20027;-76
2022/04/13 11:01:45;;;;;;;;;;;;;;;14.19;60.09;101127.13;5048742;28;19928;-76
2022/04/13 11:04:11;;;;;;;;;;;;;;;14.60;59.11;101131.91;5053834;28;20352;-80
2022/04/13 11:06:39;;;;;;;;;;;;;;;14.03;60.85;101131.06;5050356;28;19924;-76
2022/04/13 11:09:07;;;;;;;;;;;;;;;14.16;61.13;101130.69;5050336;28;19974;-79
2022/04/13 11:11:36;;;;;;;;;;;;;;;14.53;59.56;101134.78;5047647;28;19924;-78
2022/04/13 11:14:16;;;;;;;;;;;;;;;14.35;60.93;101127.50;5045329;28;20050;-78
2022/04/13 11:16:41;;;;;;;;;;;;;;;14.72;60.76;101141.13;5047241;28;19925;-80
2022/04/13 11:19:07;;;;;;;;;;;;;;;14.72;59.08;101131.53;5043897;28;19927;-80
2022/04/13 11:21:33;;;;;;;;;;;;;;;15.03;58.85;101128.81;5048769;28;19932;-81
2022/04/13 11:23:58;;;;;;;;;;;;;;;14.97;59.40;101133.38;5044330;28;19987;-79
2022/04/13 11:26:46;;;;;;;;;;;;;;;14.77;60.14;101129.66;5048371;28;19936;-80
2022/04/13 11:29:11;;;;;;;;;;;;;;;14.72;60.29;101125.44;5038670;28;19925;-78
2022/04/13 11:31:55;;;;;;;;;;;;;;;14.88;59.33;101126.69;5047211;28;19924;-76
2022/04/13 11:34:50;;;;;;;;;;;;;;;14.89;58.87;101131.00;5043608;28;19921;-80
2022/04/13 11:37:19;;;;;;;;;;;;;;;15.11;57.78;101134.63;5034129;28;19924;-81
2022/04/13 11:39:46;;;;;;;;;;;;;;;15.25;57.62;101139.38;5046256;28;19925;-80
2022/04/13 11:42:21;;;;;;;;;;;;;;;15.12;57.90;101143.34;5025707;28;19928;-80
2022/04/13 11:44:47;;;;;;;;;;;;;;;14.91;58.23;101130.97;5047387;28;19929;-80
2022/04/13 11:47:13;;;;;;;;;;;;;;;14.93;58.61;101134.38;5047999;28;21581;-81
2022/04/13 11:49:53;;;;;;;;;;;;;;;15.08;58.04;101131.25;5036654;28;19921;-75
2022/04/13 11:52:36;;;;;;;;;;;;;;;14.89;58.88;101132.78;5050207;28;20411;-80
2022/04/13 11:55:04;;;;;;;;;;;;;;;14.75;59.89;101123.63;5043294;28;20443;-78
2022/04/13 11:57:49;;;;;;;;;;;;;;;14.77;59.64;101129.66;5051874;28;19925;-76
2022/04/13 12:00:40;;;;;;;;;;;;;;;14.78;59.58;101125.28;5069255;28;19921;-76
2022/04/13 12:03:08;;;;;;;;;;;;;;;15.07;58.27;101134.75;5049775;28;19967;-78
2022/04/13 12:05:34;;;;;;;;;;;;;;;15.25;57.47;101128.91;5056336;28;19925;-78
2022/04/13 12:08:00;;;;;;;;;;;;;;;15.10;57.83;101132.03;5048676;28;19961;-78
2022/04/13 12:10:25;;;;;;;;;;;;;;;15.03;59.99;101127.94;5054790;28;19979;-76
2022/04/13 12:12:55;;;;;;;;;;;;;;;15.24;57.14;101130.69;5054913;28;20082;-81
2022/04/13 12:15:20;;;;;;;;;;;;;;;15.30;56.93;101132.25;5034354;28;20327;-80
2022/04/13 12:17:45;;;;;;;;;;;;;;;15.09;57.62;101132.97;5055948;28;19925;-76
2022/04/13 12:20:26;;;;;;;;;;;;;;;15.24;57.06;101135.94;5037023;28;19925;-76
2022/04/13 12:22:51;;;;;;;;;;;;;;;15.31;56.96;101141.78;5043774;28;19975;-76
2022/04/13 12:25:18;;;;;;;;;;;;;;;14.76;57.04;101130.56;5031548;28;21821;-76
2022/04/13 12:28:05;;;;;;;;;;;;;;;15.13;57.67;101130.19;5053818;28;19924;-78
2022/04/13 12:30:31;;;;;;;;;;;;;;;15.42;56.96;101126.59;5058751;28;19983;-80
2022/04/13 12:32:56;;;;;;;;;;;;;;;15.18;58.55;101135.28;5050206;28;19956;-80